sensor_id;sensor_type;location;lat;lon;timestamp;temperature;humidity
78902;DHT22;70441;44.758;37.686;2023-07-22T00:00:14;24.12;73.02
78902;DHT22;70441;44.758;37.686;2023-07-22T00:01:17;24.09;73.30
78902;DHT22;70441;44.758;37.686;2023-07-22T00:02:19;24.06;73.40
78902;DHT22;70441;44.758;37.686;2023-07-22T00:03:21;24.06;73.49
78902;DHT22;70441;44.758;37.686;2023-07-22T00:04:25;24.04;73.50
78902;DHT22;70441;44.758;37.686;2023-07-22T00:05:28;23.99;73.52
78902;DHT22;70441;44.758;37.686;2023-07-22T00:06:30;23.98;73.66
78902;DHT22;70441;44.758;37.686;2023-07-22T00:07:36;23.99;74.10
78902;DHT22;70441;44.758;37.686;2023-07-22T00:08:38;24.01;73.72
78902;DHT22;70441;44.758;37.686;2023-07-22T00:09:40;24.01;73.55
78902;DHT22;70441;44.758;37.686;2023-07-22T00:10:43;24.01;73.97
78902;DHT22;70441;44.758;37.686;2023-07-22T00:11:44;23.99;74.11
78902;DHT22;70441;44.758;37.686;2023-07-22T00:12:46;23.94;73.93
78902;DHT22;70441;44.758;37.686;2023-07-22T00:13:47;23.92;73.67
78902;DHT22;70441;44.758;37.686;2023-07-22T00:14:49;23.86;73.97
78902;DHT22;70441;44.758;37.686;2023-07-22T00:15:51;23.89;73.77
78902;DHT22;70441;44.758;37.686;2023-07-22T00:16:54;23.85;73.97
78902;DHT22;70441;44.758;37.686;2023-07-22T00:17:56;23.82;74.47
78902;DHT22;70441;44.758;37.686;2023-07-22T00:18:57;23.85;74.12
78902;DHT22;70441;44.758;37.686;2023-07-22T00:19:59;23.82;74.47
78902;DHT22;70441;44.758;37.686;2023-07-22T00:21:01;23.78;73.92
78902;DHT22;70441;44.758;37.686;2023-07-22T00:22:03;23.78;74.10
78902;DHT22;70441;44.758;37.686;2023-07-22T00:23:04;23.72;74.94
78902;DHT22;70441;44.758;37.686;2023-07-22T00:24:06;23.71;74.55
78902;DHT22;70441;44.758;37.686;2023-07-22T00:25:10;23.67;74.72
78902;DHT22;70441;44.758;37.686;2023-07-22T00:26:12;23.61;75.96
78902;DHT22;70441;44.758;37.686;2023-07-22T00:27:14;23.61;76.35
78902;DHT22;70441;44.758;37.686;2023-07-22T00:28:16;23.64;76.62
78902;DHT22;70441;44.758;37.686;2023-07-22T00:29:17;23.63;76.68
78902;DHT22;70441;44.758;37.686;2023-07-22T00:30:19;23.64;76.67
78902;DHT22;70441;44.758;37.686;2023-07-22T00:31:20;23.64;76.67
78902;DHT22;70441;44.758;37.686;2023-07-22T00:32:23;23.61;75.89
78902;DHT22;70441;44.758;37.686;2023-07-22T00:33:24;23.58;75.63
78902;DHT22;70441;44.758;37.686;2023-07-22T00:34:26;23.60;76.42
78902;DHT22;70441;44.758;37.686;2023-07-22T00:35:27;23.58;76.23
78902;DHT22;70441;44.758;37.686;2023-07-22T00:36:29;23.57;76.39
78902;DHT22;70441;44.758;37.686;2023-07-22T00:37:31;23.54;76.57
78902;DHT22;70441;44.758;37.686;2023-07-22T00:38:33;23.54;76.75
78902;DHT22;70441;44.758;37.686;2023-07-22T00:39:37;23.57;77.50
78902;DHT22;70441;44.758;37.686;2023-07-22T00:40:39;23.54;78.18
78902;DHT22;70441;44.758;37.686;2023-07-22T00:41:41;23.53;78.25
78902;DHT22;70441;44.758;37.686;2023-07-22T00:42:46;23.51;78.78
78902;DHT22;70441;44.758;37.686;2023-07-22T00:43:48;23.51;78.77
78902;DHT22;70441;44.758;37.686;2023-07-22T00:44:49;23.47;79.07
78902;DHT22;70441;44.758;37.686;2023-07-22T00:45:51;23.45;79.22
78902;DHT22;70441;44.758;37.686;2023-07-22T00:46:57;23.46;79.18
78902;DHT22;70441;44.758;37.686;2023-07-22T00:47:59;23.46;79.29
78902;DHT22;70441;44.758;37.686;2023-07-22T00:49:01;23.45;79.24
78902;DHT22;70441;44.758;37.686;2023-07-22T00:50:04;23.43;79.19
78902;DHT22;70441;44.758;37.686;2023-07-22T00:51:07;23.46;79.16
78902;DHT22;70441;44.758;37.686;2023-07-22T00:52:09;23.39;79.07
78902;DHT22;70441;44.758;37.686;2023-07-22T00:53:11;23.40;78.69
78902;DHT22;70441;44.758;37.686;2023-07-22T00:54:12;23.43;78.49
78902;DHT22;70441;44.758;37.686;2023-07-22T00:55:15;23.47;78.27
78902;DHT22;70441;44.758;37.686;2023-07-22T00:56:16;23.47;78.27
78902;DHT22;70441;44.758;37.686;2023-07-22T00:57:18;23.45;78.12
78902;DHT22;70441;44.758;37.686;2023-07-22T00:58:20;23.47;78.22
78902;DHT22;70441;44.758;37.686;2023-07-22T00:59:23;23.43;78.17
78902;DHT22;70441;44.758;37.686;2023-07-22T01:00:24;23.46;78.03
78902;DHT22;70441;44.758;37.686;2023-07-22T01:01:26;23.47;77.85
78902;DHT22;70441;44.758;37.686;2023-07-22T01:02:27;23.50;77.60
78902;DHT22;70441;44.758;37.686;2023-07-22T01:03:30;23.53;77.46
78902;DHT22;70441;44.758;37.686;2023-07-22T01:04:33;23.53;77.09
78902;DHT22;70441;44.758;37.686;2023-07-22T01:05:35;23.56;76.94
78902;DHT22;70441;44.758;37.686;2023-07-22T01:06:40;23.57;77.04
78902;DHT22;70441;44.758;37.686;2023-07-22T01:07:43;23.58;76.63
78902;DHT22;70441;44.758;37.686;2023-07-22T01:08:45;23.61;76.43
78902;DHT22;70441;44.758;37.686;2023-07-22T01:09:47;23.64;75.91
78902;DHT22;70441;44.758;37.686;2023-07-22T01:10:49;23.64;75.91
78902;DHT22;70441;44.758;37.686;2023-07-22T01:11:51;23.65;76.05
78902;DHT22;70441;44.758;37.686;2023-07-22T01:12:52;23.64;75.54
78902;DHT22;70441;44.758;37.686;2023-07-22T01:13:54;23.64;75.42
78902;DHT22;70441;44.758;37.686;2023-07-22T01:14:59;23.65;75.52
78902;DHT22;70441;44.758;37.686;2023-07-22T01:16:01;23.63;75.26
78902;DHT22;70441;44.758;37.686;2023-07-22T01:17:04;23.60;75.49
78902;DHT22;70441;44.758;37.686;2023-07-22T01:18:06;23.57;75.65
78902;DHT22;70441;44.758;37.686;2023-07-22T01:19:08;23.58;75.34
78902;DHT22;70441;44.758;37.686;2023-07-22T01:20:10;23.57;75.48
78902;DHT22;70441;44.758;37.686;2023-07-22T01:21:12;23.53;75.35
78902;DHT22;70441;44.758;37.686;2023-07-22T01:22:14;23.53;75.05
78902;DHT22;70441;44.758;37.686;2023-07-22T01:23:18;23.56;74.90
78902;DHT22;70441;44.758;37.686;2023-07-22T01:24:21;23.54;74.74
78902;DHT22;70441;44.758;37.686;2023-07-22T01:25:24;23.54;74.54
78902;DHT22;70441;44.758;37.686;2023-07-22T01:26:27;23.57;74.55
78902;DHT22;70441;44.758;37.686;2023-07-22T01:27:29;23.58;74.09
78902;DHT22;70441;44.758;37.686;2023-07-22T01:28:30;23.58;73.83
78902;DHT22;70441;44.758;37.686;2023-07-22T01:29:32;23.60;73.67
78902;DHT22;70441;44.758;37.686;2023-07-22T01:30:34;23.64;73.00
78902;DHT22;70441;44.758;37.686;2023-07-22T01:31:35;23.68;73.01
78902;DHT22;70441;44.758;37.686;2023-07-22T01:32:37;23.70;72.61
78902;DHT22;70441;44.758;37.686;2023-07-22T01:33:39;23.65;72.49
78902;DHT22;70441;44.758;37.686;2023-07-22T01:34:41;23.67;72.21
78902;DHT22;70441;44.758;37.686;2023-07-22T01:35:43;23.65;72.22
78902;DHT22;70441;44.758;37.686;2023-07-22T01:36:48;23.67;71.85
78902;DHT22;70441;44.758;37.686;2023-07-22T01:37:49;23.65;71.83
78902;DHT22;70441;44.758;37.686;2023-07-22T01:38:51;23.67;71.78
78902;DHT22;70441;44.758;37.686;2023-07-22T01:39:52;23.64;71.73
78902;DHT22;70441;44.758;37.686;2023-07-22T01:40:54;23.63;71.61
78902;DHT22;70441;44.758;37.686;2023-07-22T01:41:56;23.63;71.39
78902;DHT22;70441;44.758;37.686;2023-07-22T01:42:57;23.64;71.34
78902;DHT22;70441;44.758;37.686;2023-07-22T01:43:59;23.64;71.22
78902;DHT22;70441;44.758;37.686;2023-07-22T01:45:01;23.61;71.17
78902;DHT22;70441;44.758;37.686;2023-07-22T01:46:03;23.64;71.11
78902;DHT22;70441;44.758;37.686;2023-07-22T01:47:04;23.63;71.07
78902;DHT22;70441;44.758;37.686;2023-07-22T01:48:06;23.63;70.99
78902;DHT22;70441;44.758;37.686;2023-07-22T01:49:10;23.63;70.86
78902;DHT22;70441;44.758;37.686;2023-07-22T01:50:13;23.61;70.89
78902;DHT22;70441;44.758;37.686;2023-07-22T01:51:15;23.58;70.91
78902;DHT22;70441;44.758;37.686;2023-07-22T01:52:16;23.56;70.91
78902;DHT22;70441;44.758;37.686;2023-07-22T01:53:18;23.57;70.75
78902;DHT22;70441;44.758;37.686;2023-07-22T01:54:19;23.54;70.70
78902;DHT22;70441;44.758;37.686;2023-07-22T01:55:21;23.53;70.73
78902;DHT22;70441;44.758;37.686;2023-07-22T01:56:23;23.50;70.72
78902;DHT22;70441;44.758;37.686;2023-07-22T01:57:25;23.51;70.54
78902;DHT22;70441;44.758;37.686;2023-07-22T01:58:26;23.50;70.58
78902;DHT22;70441;44.758;37.686;2023-07-22T01:59:28;23.50;70.58
78902;DHT22;70441;44.758;37.686;2023-07-22T02:00:30;23.49;71.50
78902;DHT22;70441;44.758;37.686;2023-07-22T02:01:32;23.46;71.45
78902;DHT22;70441;44.758;37.686;2023-07-22T02:02:33;23.46;71.92
78902;DHT22;70441;44.758;37.686;2023-07-22T02:03:36;23.45;72.02
78902;DHT22;70441;44.758;37.686;2023-07-22T02:04:37;23.43;71.92
78902;DHT22;70441;44.758;37.686;2023-07-22T02:05:39;23.42;71.85
78902;DHT22;70441;44.758;37.686;2023-07-22T02:06:40;23.43;71.39
78902;DHT22;70441;44.758;37.686;2023-07-22T02:07:42;23.45;71.35
78902;DHT22;70441;44.758;37.686;2023-07-22T02:08:43;23.45;71.54
78902;DHT22;70441;44.758;37.686;2023-07-22T02:09:45;23.45;71.91
78902;DHT22;70441;44.758;37.686;2023-07-22T02:10:47;23.43;71.73
78902;DHT22;70441;44.758;37.686;2023-07-22T02:11:48;23.40;71.71
78902;DHT22;70441;44.758;37.686;2023-07-22T02:12:50;23.42;71.52
78902;DHT22;70441;44.758;37.686;2023-07-22T02:13:51;23.42;71.55
78902;DHT22;70441;44.758;37.686;2023-07-22T02:14:53;23.42;71.49
78902;DHT22;70441;44.758;37.686;2023-07-22T02:15:54;23.42;71.58
78902;DHT22;70441;44.758;37.686;2023-07-22T02:16:56;23.43;71.42
78902;DHT22;70441;44.758;37.686;2023-07-22T02:17:57;23.43;71.18
78902;DHT22;70441;44.758;37.686;2023-07-22T02:19:00;23.45;71.05
78902;DHT22;70441;44.758;37.686;2023-07-22T02:20:01;23.47;70.99
78902;DHT22;70441;44.758;37.686;2023-07-22T02:21:03;23.49;70.68
78902;DHT22;70441;44.758;37.686;2023-07-22T02:22:05;23.50;70.32
78902;DHT22;70441;44.758;37.686;2023-07-22T02:23:06;23.51;70.32
78902;DHT22;70441;44.758;37.686;2023-07-22T02:24:09;23.56;70.27
78902;DHT22;70441;44.758;37.686;2023-07-22T02:25:10;23.56;70.08
78902;DHT22;70441;44.758;37.686;2023-07-22T02:26:12;23.54;70.11
78902;DHT22;70441;44.758;37.686;2023-07-22T02:27:13;23.57;69.86
78902;DHT22;70441;44.758;37.686;2023-07-22T02:28:15;23.56;70.67
78902;DHT22;70441;44.758;37.686;2023-07-22T02:29:17;23.61;70.72
78902;DHT22;70441;44.758;37.686;2023-07-22T02:30:20;23.61;70.42
78902;DHT22;70441;44.758;37.686;2023-07-22T02:31:22;23.63;70.91
78902;DHT22;70441;44.758;37.686;2023-07-22T02:32:24;23.64;71.36
78902;DHT22;70441;44.758;37.686;2023-07-22T02:33:25;23.65;71.46
78902;DHT22;70441;44.758;37.686;2023-07-22T02:34:27;23.71;71.23
78902;DHT22;70441;44.758;37.686;2023-07-22T02:35:29;23.68;71.46
78902;DHT22;70441;44.758;37.686;2023-07-22T02:36:30;23.71;71.65
78902;DHT22;70441;44.758;37.686;2023-07-22T02:37:33;23.78;71.28
78902;DHT22;70441;44.758;37.686;2023-07-22T02:38:35;23.84;71.02
78902;DHT22;70441;44.758;37.686;2023-07-22T02:39:36;23.88;70.81
78902;DHT22;70441;44.758;37.686;2023-07-22T02:40:38;23.95;70.35
78902;DHT22;70441;44.758;37.686;2023-07-22T02:41:39;24.01;70.16
78902;DHT22;70441;44.758;37.686;2023-07-22T02:42:41;24.04;70.04
78902;DHT22;70441;44.758;37.686;2023-07-22T02:43:43;24.12;69.96
78902;DHT22;70441;44.758;37.686;2023-07-22T02:44:44;24.15;69.63
78902;DHT22;70441;44.758;37.686;2023-07-22T02:45:46;24.23;69.38
78902;DHT22;70441;44.758;37.686;2023-07-22T02:46:48;24.29;69.18
78902;DHT22;70441;44.758;37.686;2023-07-22T02:47:50;24.36;69.40
78902;DHT22;70441;44.758;37.686;2023-07-22T02:48:52;24.41;69.52
78902;DHT22;70441;44.758;37.686;2023-07-22T02:49:53;24.50;69.81
78902;DHT22;70441;44.758;37.686;2023-07-22T02:50:55;24.55;69.79
78902;DHT22;70441;44.758;37.686;2023-07-22T02:51:57;24.65;69.72
78902;DHT22;70441;44.758;37.686;2023-07-22T02:52:58;24.78;69.53
78902;DHT22;70441;44.758;37.686;2023-07-22T02:54:00;24.85;69.46
78902;DHT22;70441;44.758;37.686;2023-07-22T02:55:14;24.98;68.64
78902;DHT22;70441;44.758;37.686;2023-07-22T02:56:16;25.06;68.42
78902;DHT22;70441;44.758;37.686;2023-07-22T02:57:18;25.16;68.31
78902;DHT22;70441;44.758;37.686;2023-07-22T02:58:19;25.22;68.84
78902;DHT22;70441;44.758;37.686;2023-07-22T02:59:21;25.23;69.45
78902;DHT22;70441;44.758;37.686;2023-07-22T03:00:23;25.20;69.79
78902;DHT22;70441;44.758;37.686;2023-07-22T03:01:27;25.17;69.86
78902;DHT22;70441;44.758;37.686;2023-07-22T03:02:29;25.23;70.03
78902;DHT22;70441;44.758;37.686;2023-07-22T03:03:30;25.30;70.04
78902;DHT22;70441;44.758;37.686;2023-07-22T03:04:35;25.38;69.92
78902;DHT22;70441;44.758;37.686;2023-07-22T03:05:37;25.44;69.56
78902;DHT22;70441;44.758;37.686;2023-07-22T03:06:38;25.51;69.23
78902;DHT22;70441;44.758;37.686;2023-07-22T03:07:40;25.58;68.56
78902;DHT22;70441;44.758;37.686;2023-07-22T03:08:42;25.64;68.24
78902;DHT22;70441;44.758;37.686;2023-07-22T03:09:44;25.69;67.90
78902;DHT22;70441;44.758;37.686;2023-07-22T03:10:45;25.72;67.21
78902;DHT22;70441;44.758;37.686;2023-07-22T03:11:49;25.81;66.91
78902;DHT22;70441;44.758;37.686;2023-07-22T03:12:51;25.86;66.78
78902;DHT22;70441;44.758;37.686;2023-07-22T03:13:56;25.92;66.55
78902;DHT22;70441;44.758;37.686;2023-07-22T03:14:59;26.04;66.17
78902;DHT22;70441;44.758;37.686;2023-07-22T03:16:00;26.13;65.87
78902;DHT22;70441;44.758;37.686;2023-07-22T03:17:05;26.23;66.20
78902;DHT22;70441;44.758;37.686;2023-07-22T03:18:07;26.32;65.37
78902;DHT22;70441;44.758;37.686;2023-07-22T03:19:08;26.44;64.98
78902;DHT22;70441;44.758;37.686;2023-07-22T03:20:11;26.44;65.02
78902;DHT22;70441;44.758;37.686;2023-07-22T03:21:15;26.48;64.94
78902;DHT22;70441;44.758;37.686;2023-07-22T03:22:17;26.53;65.87
78902;DHT22;70441;44.758;37.686;2023-07-22T03:23:20;26.60;65.97
78902;DHT22;70441;44.758;37.686;2023-07-22T03:24:21;26.75;65.65
78902;DHT22;70441;44.758;37.686;2023-07-22T03:25:23;26.86;65.32
78902;DHT22;70441;44.758;37.686;2023-07-22T03:26:24;26.89;65.03
78902;DHT22;70441;44.758;37.686;2023-07-22T03:27:26;26.91;65.07
78902;DHT22;70441;44.758;37.686;2023-07-22T03:28:28;26.99;64.79
78902;DHT22;70441;44.758;37.686;2023-07-22T03:29:29;26.93;64.59
78902;DHT22;70441;44.758;37.686;2023-07-22T03:30:31;26.91;64.52
78902;DHT22;70441;44.758;37.686;2023-07-22T03:31:33;26.89;65.21
78902;DHT22;70441;44.758;37.686;2023-07-22T03:32:35;26.94;64.84
78902;DHT22;70441;44.758;37.686;2023-07-22T03:33:36;26.97;64.41
78902;DHT22;70441;44.758;37.686;2023-07-22T03:34:38;27.00;64.28
78902;DHT22;70441;44.758;37.686;2023-07-22T03:35:39;26.94;64.29
78902;DHT22;70441;44.758;37.686;2023-07-22T03:36:41;26.96;65.00
78902;DHT22;70441;44.758;37.686;2023-07-22T03:37:43;27.01;64.84
78902;DHT22;70441;44.758;37.686;2023-07-22T03:38:44;27.07;64.52
78902;DHT22;70441;44.758;37.686;2023-07-22T03:39:46;27.28;64.42
78902;DHT22;70441;44.758;37.686;2023-07-22T03:40:48;27.65;63.52
78902;DHT22;70441;44.758;37.686;2023-07-22T03:41:49;27.83;62.51
78902;DHT22;70441;44.758;37.686;2023-07-22T03:42:53;27.84;62.33
78902;DHT22;70441;44.758;37.686;2023-07-22T03:43:55;27.93;62.18
78902;DHT22;70441;44.758;37.686;2023-07-22T03:44:57;28.08;61.41
78902;DHT22;70441;44.758;37.686;2023-07-22T03:45:58;28.17;60.86
78902;DHT22;70441;44.758;37.686;2023-07-22T03:47:00;28.35;60.66
78902;DHT22;70441;44.758;37.686;2023-07-22T03:48:01;28.42;58.57
78902;DHT22;70441;44.758;37.686;2023-07-22T03:49:03;28.31;59.34
78902;DHT22;70441;44.758;37.686;2023-07-22T03:50:06;28.21;60.00
78902;DHT22;70441;44.758;37.686;2023-07-22T03:51:08;28.35;59.93
78902;DHT22;70441;44.758;37.686;2023-07-22T03:52:09;28.64;58.60
78902;DHT22;70441;44.758;37.686;2023-07-22T03:53:15;28.97;58.25
78902;DHT22;70441;44.758;37.686;2023-07-22T03:54:17;29.20;57.83
78902;DHT22;70441;44.758;37.686;2023-07-22T03:55:18;29.46;56.67
78902;DHT22;70441;44.758;37.686;2023-07-22T03:56:26;29.66;56.31
78902;DHT22;70441;44.758;37.686;2023-07-22T03:57:29;29.61;56.47
78902;DHT22;70441;44.758;37.686;2023-07-22T03:58:30;29.68;55.02
78902;DHT22;70441;44.758;37.686;2023-07-22T03:59:32;29.86;54.95
78902;DHT22;70441;44.758;37.686;2023-07-22T04:00:35;29.97;53.74
78902;DHT22;70441;44.758;37.686;2023-07-22T04:01:37;30.01;53.70
78902;DHT22;70441;44.758;37.686;2023-07-22T04:02:39;30.12;53.77
78902;DHT22;70441;44.758;37.686;2023-07-22T04:03:42;30.29;53.22
78902;DHT22;70441;44.758;37.686;2023-07-22T04:04:43;30.47;51.66
78902;DHT22;70441;44.758;37.686;2023-07-22T04:05:56;30.37;50.87
78902;DHT22;70441;44.758;37.686;2023-07-22T04:06:58;30.02;51.91
78902;DHT22;70441;44.758;37.686;2023-07-22T04:08:00;30.05;52.81
78902;DHT22;70441;44.758;37.686;2023-07-22T04:09:01;30.08;52.55
78902;DHT22;70441;44.758;37.686;2023-07-22T04:10:03;30.05;52.65
78902;DHT22;70441;44.758;37.686;2023-07-22T04:11:05;30.23;52.92
78902;DHT22;70441;44.758;37.686;2023-07-22T04:12:07;30.47;51.16
78902;DHT22;70441;44.758;37.686;2023-07-22T04:13:08;30.65;50.62
78902;DHT22;70441;44.758;37.686;2023-07-22T04:14:10;30.65;49.82
78902;DHT22;70441;44.758;37.686;2023-07-22T04:15:13;30.79;49.56
78902;DHT22;70441;44.758;37.686;2023-07-22T04:16:16;31.02;49.73
78902;DHT22;70441;44.758;37.686;2023-07-22T04:17:17;31.30;49.44
78902;DHT22;70441;44.758;37.686;2023-07-22T04:18:20;31.59;47.95
78902;DHT22;70441;44.758;37.686;2023-07-22T04:19:21;31.88;47.62
78902;DHT22;70441;44.758;37.686;2023-07-22T04:20:23;32.08;47.17
78902;DHT22;70441;44.758;37.686;2023-07-22T04:21:26;32.24;45.94
78902;DHT22;70441;44.758;37.686;2023-07-22T04:22:28;32.21;46.46
78902;DHT22;70441;44.758;37.686;2023-07-22T04:23:30;32.26;47.14
78902;DHT22;70441;44.758;37.686;2023-07-22T04:24:34;32.31;46.65
78902;DHT22;70441;44.758;37.686;2023-07-22T04:25:42;32.35;46.73
78902;DHT22;70441;44.758;37.686;2023-07-22T04:26:44;32.30;47.66
78902;DHT22;70441;44.758;37.686;2023-07-22T04:27:46;32.38;46.60
78902;DHT22;70441;44.758;37.686;2023-07-22T04:28:47;32.44;45.82
78902;DHT22;70441;44.758;37.686;2023-07-22T04:29:49;32.19;46.44
78902;DHT22;70441;44.758;37.686;2023-07-22T04:30:57;32.19;46.89
78902;DHT22;70441;44.758;37.686;2023-07-22T04:31:59;32.41;45.35
78902;DHT22;70441;44.758;37.686;2023-07-22T04:33:02;32.62;45.92
78902;DHT22;70441;44.758;37.686;2023-07-22T04:34:04;32.79;43.98
78902;DHT22;70441;44.758;37.686;2023-07-22T04:35:07;32.95;43.58
78902;DHT22;70441;44.758;37.686;2023-07-22T04:36:08;33.00;43.65
78902;DHT22;70441;44.758;37.686;2023-07-22T04:37:10;33.02;43.10
78902;DHT22;70441;44.758;37.686;2023-07-22T04:38:11;33.16;43.31
78902;DHT22;70441;44.758;37.686;2023-07-22T04:39:13;33.35;42.78
78902;DHT22;70441;44.758;37.686;2023-07-22T04:40:15;33.37;43.02
78902;DHT22;70441;44.758;37.686;2023-07-22T04:41:18;33.51;43.08
78902;DHT22;70441;44.758;37.686;2023-07-22T04:42:19;33.58;43.31
78902;DHT22;70441;44.758;37.686;2023-07-22T04:43:22;33.65;41.70
78902;DHT22;70441;44.758;37.686;2023-07-22T04:44:23;33.63;41.92
78902;DHT22;70441;44.758;37.686;2023-07-22T04:45:25;33.65;42.03
78902;DHT22;70441;44.758;37.686;2023-07-22T04:46:26;33.75;43.20
78902;DHT22;70441;44.758;37.686;2023-07-22T04:47:28;33.92;42.07
78902;DHT22;70441;44.758;37.686;2023-07-22T04:48:30;34.06;41.59
78902;DHT22;70441;44.758;37.686;2023-07-22T04:49:32;34.17;41.62
78902;DHT22;70441;44.758;37.686;2023-07-22T04:50:34;34.25;41.12
78902;DHT22;70441;44.758;37.686;2023-07-22T04:51:35;34.25;41.12
78902;DHT22;70441;44.758;37.686;2023-07-22T04:52:37;34.28;40.57
78902;DHT22;70441;44.758;37.686;2023-07-22T04:53:38;34.31;40.71
78902;DHT22;70441;44.758;37.686;2023-07-22T04:54:41;34.41;40.43
78902;DHT22;70441;44.758;37.686;2023-07-22T04:55:43;34.41;40.65
78902;DHT22;70441;44.758;37.686;2023-07-22T04:56:44;34.31;40.09
78902;DHT22;70441;44.758;37.686;2023-07-22T04:57:46;33.83;41.90
78902;DHT22;70441;44.758;37.686;2023-07-22T04:58:48;33.85;41.90
78902;DHT22;70441;44.758;37.686;2023-07-22T04:59:50;34.00;42.17
78902;DHT22;70441;44.758;37.686;2023-07-22T05:00:52;34.03;41.47
78902;DHT22;70441;44.758;37.686;2023-07-22T05:01:54;34.03;41.64
78902;DHT22;70441;44.758;37.686;2023-07-22T05:02:56;34.17;41.37
78902;DHT22;70441;44.758;37.686;2023-07-22T05:03:57;34.27;42.39
78902;DHT22;70441;44.758;37.686;2023-07-22T05:04:59;34.35;40.46
78902;DHT22;70441;44.758;37.686;2023-07-22T05:06:01;34.33;40.76
78902;DHT22;70441;44.758;37.686;2023-07-22T05:07:03;34.35;40.90
78902;DHT22;70441;44.758;37.686;2023-07-22T05:08:05;34.42;40.51
78902;DHT22;70441;44.758;37.686;2023-07-22T05:09:10;34.45;41.82
78902;DHT22;70441;44.758;37.686;2023-07-22T05:10:11;34.59;41.39
78902;DHT22;70441;44.758;37.686;2023-07-22T05:11:16;34.63;41.65
78902;DHT22;70441;44.758;37.686;2023-07-22T05:12:17;34.69;40.54
78902;DHT22;70441;44.758;37.686;2023-07-22T05:13:19;34.69;40.17
78902;DHT22;70441;44.758;37.686;2023-07-22T05:14:20;34.72;40.56
78902;DHT22;70441;44.758;37.686;2023-07-22T05:15:22;34.73;40.34
78902;DHT22;70441;44.758;37.686;2023-07-22T05:16:24;34.63;41.25
78902;DHT22;70441;44.758;37.686;2023-07-22T05:17:26;34.33;41.27
78902;DHT22;70441;44.758;37.686;2023-07-22T05:18:30;34.29;41.98
78902;DHT22;70441;44.758;37.686;2023-07-22T05:19:32;34.51;41.11
78902;DHT22;70441;44.758;37.686;2023-07-22T05:20:34;34.65;41.22
78902;DHT22;70441;44.758;37.686;2023-07-22T05:21:35;34.73;40.56
78902;DHT22;70441;44.758;37.686;2023-07-22T05:22:38;34.75;40.22
78902;DHT22;70441;44.758;37.686;2023-07-22T05:23:39;34.78;40.73
78902;DHT22;70441;44.758;37.686;2023-07-22T05:24:41;34.84;40.19
78902;DHT22;70441;44.758;37.686;2023-07-22T05:25:42;34.92;39.79
78902;DHT22;70441;44.758;37.686;2023-07-22T05:26:44;34.93;39.00
78902;DHT22;70441;44.758;37.686;2023-07-22T05:27:45;34.94;39.36
78902;DHT22;70441;44.758;37.686;2023-07-22T05:28:47;35.01;39.69
78902;DHT22;70441;44.758;37.686;2023-07-22T05:29:49;35.15;40.02
78902;DHT22;70441;44.758;37.686;2023-07-22T05:30:50;35.28;40.00
78902;DHT22;70441;44.758;37.686;2023-07-22T05:31:52;35.28;39.79
78902;DHT22;70441;44.758;37.686;2023-07-22T05:32:53;35.38;39.11
78902;DHT22;70441;44.758;37.686;2023-07-22T05:33:55;35.35;39.40
78902;DHT22;70441;44.758;37.686;2023-07-22T05:34:57;35.04;39.68
78902;DHT22;70441;44.758;37.686;2023-07-22T05:35:58;34.89;39.46
78902;DHT22;70441;44.758;37.686;2023-07-22T05:37:00;35.07;39.16
78902;DHT22;70441;44.758;37.686;2023-07-22T05:38:01;35.18;38.47
78902;DHT22;70441;44.758;37.686;2023-07-22T05:39:05;35.27;38.79
78902;DHT22;70441;44.758;37.686;2023-07-22T05:40:07;35.27;38.05
78902;DHT22;70441;44.758;37.686;2023-07-22T05:41:09;35.24;38.45
78902;DHT22;70441;44.758;37.686;2023-07-22T05:42:11;35.30;38.86
78902;DHT22;70441;44.758;37.686;2023-07-22T05:43:12;35.43;38.22
78902;DHT22;70441;44.758;37.686;2023-07-22T05:44:14;35.48;38.08
78902;DHT22;70441;44.758;37.686;2023-07-22T05:45:15;35.58;38.12
78902;DHT22;70441;44.758;37.686;2023-07-22T05:46:20;35.72;37.68
78902;DHT22;70441;44.758;37.686;2023-07-22T05:47:22;35.70;37.61
78902;DHT22;70441;44.758;37.686;2023-07-22T05:48:23;35.67;38.00
78902;DHT22;70441;44.758;37.686;2023-07-22T05:49:25;35.75;39.04
78902;DHT22;70441;44.758;37.686;2023-07-22T05:50:27;35.58;39.12
78902;DHT22;70441;44.758;37.686;2023-07-22T05:51:28;35.76;39.46
78902;DHT22;70441;44.758;37.686;2023-07-22T05:52:30;35.91;38.76
78902;DHT22;70441;44.758;37.686;2023-07-22T05:53:32;35.98;37.08
78902;DHT22;70441;44.758;37.686;2023-07-22T05:54:34;36.00;37.21
78902;DHT22;70441;44.758;37.686;2023-07-22T05:55:36;35.93;36.61
78902;DHT22;70441;44.758;37.686;2023-07-22T05:56:37;35.83;37.24
78902;DHT22;70441;44.758;37.686;2023-07-22T05:57:39;35.82;36.68
78902;DHT22;70441;44.758;37.686;2023-07-22T05:58:41;35.76;36.59
78902;DHT22;70441;44.758;37.686;2023-07-22T05:59:42;35.62;36.73
78902;DHT22;70441;44.758;37.686;2023-07-22T06:00:44;35.53;37.83
78902;DHT22;70441;44.758;37.686;2023-07-22T06:01:45;35.49;37.90
78902;DHT22;70441;44.758;37.686;2023-07-22T06:02:48;35.58;38.65
78902;DHT22;70441;44.758;37.686;2023-07-22T06:03:50;35.70;37.94
78902;DHT22;70441;44.758;37.686;2023-07-22T06:04:51;35.73;37.33
78902;DHT22;70441;44.758;37.686;2023-07-22T06:05:53;35.66;37.78
78902;DHT22;70441;44.758;37.686;2023-07-22T06:06:54;35.60;37.84
78902;DHT22;70441;44.758;37.686;2023-07-22T06:07:56;35.51;37.38
78902;DHT22;70441;44.758;37.686;2023-07-22T06:08:58;35.52;38.28
78902;DHT22;70441;44.758;37.686;2023-07-22T06:10:00;35.53;37.64
78902;DHT22;70441;44.758;37.686;2023-07-22T06:11:01;35.42;37.61
78902;DHT22;70441;44.758;37.686;2023-07-22T06:12:03;35.53;38.70
78902;DHT22;70441;44.758;37.686;2023-07-22T06:13:05;35.67;37.86
78902;DHT22;70441;44.758;37.686;2023-07-22T06:14:06;35.77;37.25
78902;DHT22;70441;44.758;37.686;2023-07-22T06:15:09;35.75;36.80
78902;DHT22;70441;44.758;37.686;2023-07-22T06:16:11;35.67;37.57
78902;DHT22;70441;44.758;37.686;2023-07-22T06:17:14;35.62;37.24
78902;DHT22;70441;44.758;37.686;2023-07-22T06:18:16;35.62;37.44
78902;DHT22;70441;44.758;37.686;2023-07-22T06:19:17;35.59;37.45
78902;DHT22;70441;44.758;37.686;2023-07-22T06:20:19;35.53;37.46
78902;DHT22;70441;44.758;37.686;2023-07-22T06:21:21;35.60;37.33
78902;DHT22;70441;44.758;37.686;2023-07-22T06:22:22;35.72;38.22
78902;DHT22;70441;44.758;37.686;2023-07-22T06:23:24;35.83;36.45
78902;DHT22;70441;44.758;37.686;2023-07-22T06:24:25;35.89;36.70
78902;DHT22;70441;44.758;37.686;2023-07-22T06:25:27;36.01;36.47